createdAt,value
2018-04-30T00:00:35.317Z,19.00
2018-04-30T00:03:02.846Z,19.00
2018-04-30T00:05:30.355Z,19.00
2018-04-30T00:07:57.866Z,18.80
2018-04-30T00:10:25.555Z,18.80
2018-04-30T00:12:53.060Z,18.80
2018-04-30T00:15:20.565Z,18.70
2018-04-30T00:17:48.105Z,18.70
2018-04-30T00:20:15.616Z,18.80
2018-04-30T00:22:43.140Z,18.80
2018-04-30T00:25:10.644Z,18.80
2018-04-30T00:27:38.155Z,18.80
2018-04-30T00:30:05.676Z,18.80
2018-04-30T00:32:33.981Z,18.70
2018-04-30T00:35:01.502Z,18.70
2018-04-30T00:37:29.085Z,18.70
2018-04-30T00:39:57.397Z,18.80
2018-04-30T00:42:24.936Z,18.70
2018-04-30T00:44:52.446Z,18.80
2018-04-30T00:47:19.969Z,18.90
2018-04-30T00:49:47.490Z,18.90
2018-04-30T00:52:15.105Z,18.80
2018-04-30T00:54:54.440Z,18.70
2018-04-30T00:57:21.975Z,18.70
2018-04-30T00:59:49.501Z,18.70
2018-04-30T01:02:17.017Z,18.70
2018-04-30T01:04:44.549Z,18.70
2018-04-30T01:07:12.090Z,18.80
2018-04-30T01:09:39.660Z,18.70
2018-04-30T01:12:07.960Z,18.50
2018-04-30T01:14:35.476Z,18.50
2018-04-30T01:17:03.022Z,18.40
2018-04-30T01:19:30.534Z,18.30
2018-04-30T01:21:58.036Z,18.30
2018-04-30T01:24:25.575Z,18.30
2018-04-30T01:26:53.085Z,18.20
2018-04-30T01:29:20.625Z,18.30
2018-04-30T01:31:48.143Z,18.40
2018-04-30T01:34:15.660Z,18.40
2018-04-30T01:36:43.195Z,18.30
2018-04-30T01:39:10.720Z,18.20
2018-04-30T01:41:38.232Z,18.20
2018-04-30T01:44:05.756Z,18.20
2018-04-30T01:46:33.292Z,18.30
2018-04-30T01:49:00.836Z,18.20
2018-04-30T01:51:28.415Z,18.10
2018-04-30T01:53:55.941Z,18.20
2018-04-30T01:56:23.487Z,18.30
2018-04-30T01:58:51.783Z,18.10
2018-04-30T02:01:20.057Z,18.10
2018-04-30T02:03:48.330Z,18.00
2018-04-30T02:06:15.885Z,18.00
2018-04-30T02:08:44.169Z,17.80
2018-04-30T02:11:11.701Z,17.80
2018-04-30T02:13:39.241Z,17.80
2018-04-30T02:16:06.775Z,17.90
2018-04-30T02:18:34.324Z,17.80
2018-04-30T02:21:01.867Z,17.70
2018-04-30T02:23:30.147Z,17.70
2018-04-30T02:25:58.411Z,17.60
2018-04-30T02:28:25.942Z,17.60
2018-04-30T02:30:53.454Z,17.60
2018-04-30T02:33:20.973Z,17.50
2018-04-30T02:35:48.507Z,17.50
2018-04-30T02:38:16.042Z,17.50
2018-04-30T02:40:43.589Z,17.60
2018-04-30T02:43:11.114Z,17.60
2018-04-30T02:45:38.644Z,17.60
2018-04-30T02:48:06.172Z,17.50
2018-04-30T02:50:33.699Z,17.40
2018-04-30T02:53:01.217Z,17.40
2018-04-30T02:55:28.751Z,17.40
2018-04-30T02:57:56.349Z,17.40
2018-04-30T03:00:23.861Z,17.40
2018-04-30T03:02:51.398Z,17.40
2018-04-30T03:05:18.933Z,17.40
2018-04-30T03:07:46.470Z,17.50
2018-04-30T03:10:13.990Z,17.40
2018-04-30T03:12:42.275Z,17.30
2018-04-30T03:15:10.541Z,17.30
2018-04-30T03:17:38.057Z,17.30
2018-04-30T03:20:05.582Z,17.10
2018-04-30T03:22:33.116Z,17.10
2018-04-30T03:25:00.642Z,17.00
2018-04-30T03:27:28.167Z,17.10
2018-04-30T03:29:55.678Z,17.20
2018-04-30T03:32:23.220Z,17.10
2018-04-30T03:34:50.737Z,17.10
2018-04-30T03:37:18.247Z,17.00
2018-04-30T03:39:45.776Z,17.10
2018-04-30T03:42:13.308Z,17.10
2018-04-30T03:44:40.836Z,17.00
2018-04-30T03:47:08.361Z,17.10
2018-04-30T03:49:35.919Z,17.10
2018-04-30T03:52:03.434Z,16.90
2018-04-30T03:54:30.971Z,16.90
2018-04-30T03:56:58.517Z,16.80
2018-04-30T03:59:26.040Z,16.70
2018-04-30T04:02:05.325Z,16.70
2018-04-30T04:04:44.698Z,16.80
2018-04-30T04:07:13.001Z,16.80
2018-04-30T04:09:40.524Z,16.80
2018-04-30T04:12:08.077Z,16.80
2018-04-30T04:14:35.596Z,16.80
2018-04-30T04:17:03.125Z,16.70
2018-04-30T04:19:30.681Z,16.70
2018-04-30T04:21:58.950Z,16.70
2018-04-30T04:24:27.323Z,16.70
2018-04-30T04:26:54.837Z,16.70
2018-04-30T04:29:22.341Z,16.60
2018-04-30T04:31:50.625Z,16.70
2018-04-30T04:34:18.894Z,16.70
2018-04-30T04:36:47.182Z,16.60
2018-04-30T04:39:15.463Z,16.50
2018-04-30T04:41:43.064Z,16.50
2018-04-30T04:44:10.526Z,16.50
2018-04-30T04:46:38.077Z,16.50
2018-04-30T04:49:05.582Z,16.50
2018-04-30T04:51:33.115Z,16.50
2018-04-30T04:54:00.641Z,16.60
2018-04-30T04:56:28.170Z,16.70
2018-04-30T04:58:55.681Z,16.70
2018-04-30T05:01:23.217Z,16.80
2018-04-30T05:03:50.760Z,16.80
2018-04-30T05:06:18.267Z,16.90
2018-04-30T05:08:45.791Z,17.10
2018-04-30T05:11:13.296Z,17.10
2018-04-30T05:13:40.806Z,17.20
2018-04-30T05:16:08.321Z,17.10
2018-04-30T05:18:35.845Z,17.20
2018-04-30T05:21:03.353Z,17.20
2018-04-30T05:23:30.885Z,17.20
2018-04-30T05:25:59.197Z,17.00
2018-04-30T05:28:27.495Z,17.00
2018-04-30T05:30:55.014Z,17.00
2018-04-30T05:33:22.537Z,17.10
2018-04-30T05:35:50.057Z,17.20
2018-04-30T05:38:18.353Z,17.40
2018-04-30T05:40:45.883Z,17.40
2018-04-30T05:43:13.414Z,17.60
2018-04-30T05:45:41.808Z,17.80
2018-04-30T05:48:09.439Z,17.80
2018-04-30T05:50:36.970Z,17.90
2018-04-30T05:53:04.505Z,17.90
2018-04-30T05:55:32.025Z,17.90
2018-04-30T05:57:59.566Z,17.80
2018-04-30T06:00:27.126Z,17.90
2018-04-30T06:02:55.412Z,17.80
2018-04-30T06:05:22.922Z,17.80
2018-04-30T06:07:50.451Z,17.60
2018-04-30T06:10:17.970Z,17.70
2018-04-30T06:12:45.506Z,17.80
2018-04-30T06:15:13.106Z,17.80
2018-04-30T06:17:40.636Z,17.90
2018-04-30T06:20:08.154Z,17.90
2018-04-30T06:22:35.673Z,18.10
2018-04-30T06:25:03.196Z,18.20
2018-04-30T06:27:30.726Z,18.30
2018-04-30T06:29:58.261Z,18.40
2018-04-30T06:32:25.776Z,18.40
2018-04-30T06:34:53.311Z,18.60
2018-04-30T06:37:20.829Z,18.50
2018-04-30T06:39:48.385Z,18.60
2018-04-30T06:42:15.926Z,18.60
2018-04-30T06:44:44.221Z,18.70
2018-04-30T06:47:11.741Z,18.70
2018-04-30T06:49:39.254Z,18.70
2018-04-30T06:52:06.775Z,18.80
2018-04-30T06:54:35.097Z,19.00
2018-04-30T06:57:02.619Z,19.00
2018-04-30T06:59:30.141Z,18.90
2018-04-30T07:01:57.691Z,19.00
2018-04-30T07:04:25.226Z,19.10
2018-04-30T07:06:52.758Z,19.10
2018-04-30T07:09:21.182Z,19.40
2018-04-30T07:11:48.613Z,19.40
2018-04-30T07:14:16.148Z,19.40
2018-04-30T07:16:44.423Z,19.60
2018-04-30T07:19:12.697Z,19.70
2018-04-30T07:21:40.209Z,19.70
2018-04-30T07:24:07.772Z,19.80
2018-04-30T07:26:35.297Z,19.90
2018-04-30T07:29:03.598Z,19.90
2018-04-30T07:31:31.134Z,20.00
2018-04-30T07:33:59.543Z,20.10
2018-04-30T07:36:27.068Z,20.10
2018-04-30T07:38:55.144Z,20.30
2018-04-30T07:41:22.673Z,20.30
2018-04-30T07:43:50.204Z,20.30
2018-04-30T07:46:18.597Z,20.40
2018-04-30T07:48:46.099Z,20.50
2018-04-30T07:51:14.413Z,20.60
2018-04-30T07:53:41.999Z,20.60
2018-04-30T07:56:09.510Z,20.50
2018-04-30T07:58:37.035Z,20.60
2018-04-30T08:01:05.342Z,20.80
2018-04-30T08:03:32.882Z,20.80
2018-04-30T08:06:01.163Z,21.10
2018-04-30T08:08:29.446Z,21.20
2018-04-30T08:10:57.729Z,21.10
2018-04-30T08:13:26.034Z,21.20
2018-04-30T08:15:53.561Z,21.20
2018-04-30T08:18:21.082Z,21.10
2018-04-30T08:20:48.626Z,21.10
2018-04-30T08:23:16.170Z,21.10
2018-04-30T08:25:43.702Z,21.40
2018-04-30T08:28:12.000Z,21.70
2018-04-30T08:30:39.509Z,21.70
2018-04-30T08:33:07.027Z,21.80
2018-04-30T08:35:34.545Z,21.80
2018-04-30T08:38:02.870Z,22.00
2018-04-30T08:40:30.396Z,22.00
2018-04-30T08:42:58.655Z,22.20
2018-04-30T08:45:26.198Z,22.20
2018-04-30T08:47:53.703Z,22.30
2018-04-30T08:50:21.226Z,22.50
2018-04-30T08:52:48.733Z,22.60
2018-04-30T08:55:16.256Z,22.60
2018-04-30T08:57:44.538Z,22.90
2018-04-30T09:00:12.811Z,23.00
2018-04-30T09:02:41.145Z,23.00
2018-04-30T09:05:08.671Z,23.00
2018-04-30T09:07:36.184Z,23.10
2018-04-30T09:10:03.712Z,23.20
2018-04-30T09:12:31.223Z,23.30
2018-04-30T09:14:59.624Z,23.50
2018-04-30T09:17:27.052Z,23.50
2018-04-30T09:19:54.574Z,23.60
2018-04-30T09:22:22.134Z,23.70
2018-04-30T09:24:49.646Z,23.70
2018-04-30T09:27:17.989Z,23.90
2018-04-30T09:29:45.494Z,23.90
2018-04-30T09:32:13.057Z,23.90
2018-04-30T09:34:41.337Z,24.00
2018-04-30T09:37:09.613Z,24.20
2018-04-30T09:39:37.888Z,24.10
2018-04-30T09:42:06.177Z,24.30
2018-04-30T09:44:33.688Z,24.30
2018-04-30T09:47:01.185Z,24.40
2018-04-30T09:49:28.720Z,24.30
2018-04-30T09:51:56.251Z,24.40
2018-04-30T09:54:23.809Z,24.50
2018-04-30T09:56:51.340Z,24.70
2018-04-30T09:59:18.865Z,24.80
2018-04-30T10:01:46.409Z,25.00
2018-04-30T10:04:14.027Z,24.90
2018-04-30T10:06:41.545Z,24.80
2018-04-30T10:09:10.198Z,24.90
2018-04-30T10:11:37.717Z,24.90
2018-04-30T10:14:05.226Z,24.80
2018-04-30T10:16:32.791Z,24.50
2018-04-30T10:19:00.306Z,24.40
2018-04-30T10:21:27.843Z,24.30
2018-04-30T10:23:55.398Z,24.10
2018-04-30T10:26:22.921Z,24.00
2018-04-30T10:28:50.485Z,24.00
2018-04-30T10:31:18.034Z,24.20
2018-04-30T10:33:45.546Z,24.00
2018-04-30T10:36:13.822Z,23.20
2018-04-30T10:38:41.338Z,23.20
2018-04-30T10:41:08.885Z,23.20
2018-04-30T10:43:36.436Z,23.30
2018-04-30T10:46:04.104Z,22.90
2018-04-30T10:48:31.622Z,22.50
2018-04-30T10:50:59.975Z,22.00
2018-04-30T10:53:27.516Z,22.00
2018-04-30T10:55:55.054Z,22.00
2018-04-30T10:58:22.565Z,21.90
2018-04-30T11:00:50.083Z,21.90
2018-04-30T11:03:17.616Z,22.00
2018-04-30T11:05:45.131Z,22.00
2018-04-30T11:08:12.959Z,22.00
2018-04-30T11:10:40.481Z,22.50
2018-04-30T11:13:08.082Z,22.70
2018-04-30T11:15:35.612Z,22.50
2018-04-30T11:18:03.122Z,22.40
2018-04-30T11:20:31.401Z,21.90
2018-04-30T11:22:58.914Z,21.90
2018-04-30T11:25:26.417Z,21.50
2018-04-30T11:27:53.953Z,21.30
2018-04-30T11:30:21.496Z,21.40
2018-04-30T11:32:49.089Z,21.50
2018-04-30T11:35:16.700Z,21.60
2018-04-30T11:37:44.181Z,21.50
2018-04-30T11:40:11.761Z,21.60
2018-04-30T11:42:39.307Z,21.50
2018-04-30T11:45:06.863Z,21.40
2018-04-30T11:47:34.424Z,21.40
2018-04-30T11:50:01.973Z,21.40
2018-04-30T11:52:29.502Z,21.40
2018-04-30T11:54:57.817Z,21.60
2018-04-30T11:57:25.349Z,21.60
2018-04-30T11:59:53.641Z,22.00
2018-04-30T12:02:21.232Z,22.00
2018-04-30T12:04:48.737Z,22.20
2018-04-30T12:07:17.067Z,22.20
2018-04-30T12:09:44.617Z,22.20
2018-04-30T12:12:12.142Z,22.20
2018-04-30T12:14:40.437Z,22.00
2018-04-30T12:17:07.979Z,21.90
2018-04-30T12:19:35.481Z,21.90
2018-04-30T12:22:03.148Z,21.80
2018-04-30T12:24:30.602Z,21.60
2018-04-30T12:26:58.170Z,21.40
2018-04-30T12:29:25.715Z,21.10
2018-04-30T12:31:53.278Z,20.90
2018-04-30T12:34:20.865Z,20.90
2018-04-30T12:36:50.036Z,20.90
2018-04-30T12:39:17.569Z,21.00
2018-04-30T12:41:45.093Z,21.20
2018-04-30T12:44:12.673Z,21.50
2018-04-30T12:46:40.966Z,22.10
2018-04-30T12:49:08.515Z,22.10
2018-04-30T12:51:36.825Z,24.60
2018-04-30T12:54:04.352Z,24.50
2018-04-30T12:56:31.887Z,25.30
2018-04-30T12:58:59.429Z,26.60
2018-04-30T13:01:26.990Z,25.90
2018-04-30T13:03:55.308Z,24.10
2018-04-30T13:06:23.617Z,23.50
2018-04-30T13:08:51.201Z,23.40
2018-04-30T13:11:18.741Z,23.30
2018-04-30T13:13:46.291Z,22.70
2018-04-30T13:16:13.829Z,22.40
2018-04-30T13:18:41.351Z,22.50
2018-04-30T13:21:08.880Z,22.50
2018-04-30T13:23:36.388Z,22.50
2018-04-30T13:26:03.880Z,22.50
2018-04-30T13:28:31.521Z,22.60
2018-04-30T13:30:58.981Z,22.80
2018-04-30T13:33:27.275Z,23.10
2018-04-30T13:36:01.352Z,23.10
2018-04-30T13:38:28.911Z,23.10
2018-04-30T13:40:56.422Z,23.70
2018-04-30T13:43:23.981Z,23.90
2018-04-30T13:45:51.532Z,24.30
2018-04-30T13:48:19.828Z,24.50
2018-04-30T13:50:47.349Z,24.50
2018-04-30T13:53:14.870Z,24.00
2018-04-30T13:55:43.168Z,23.30
2018-04-30T13:58:10.669Z,23.30
2018-04-30T14:00:38.192Z,23.00
2018-04-30T14:03:05.707Z,23.00
2018-04-30T14:05:33.243Z,23.00
2018-04-30T14:08:00.759Z,23.10
2018-04-30T14:10:28.304Z,23.40
2018-04-30T14:12:55.821Z,23.60
2018-04-30T14:15:23.356Z,23.70
2018-04-30T14:17:50.893Z,23.60
2018-04-30T14:20:18.422Z,23.40
2018-04-30T14:22:45.971Z,23.50
2018-04-30T14:25:13.528Z,23.30
2018-04-30T14:27:41.034Z,23.10
2018-04-30T14:30:08.565Z,22.70
2018-04-30T14:32:36.098Z,22.60
2018-04-30T14:35:03.615Z,22.30
2018-04-30T14:37:31.152Z,22.20
2018-04-30T14:39:58.656Z,22.40
2018-04-30T14:42:26.235Z,22.30
2018-04-30T14:44:53.860Z,22.30
2018-04-30T14:47:21.363Z,22.10
2018-04-30T14:49:48.894Z,21.90
2018-04-30T14:52:16.395Z,21.90
2018-04-30T14:54:43.940Z,21.90
2018-04-30T14:57:11.726Z,21.90
2018-04-30T14:59:39.358Z,21.90
2018-04-30T15:02:06.890Z,21.70
2018-04-30T15:04:34.441Z,21.80
2018-04-30T15:07:01.969Z,21.90
2018-04-30T15:09:29.482Z,21.70
2018-04-30T15:11:57.038Z,21.60
2018-04-30T15:14:25.356Z,21.90
2018-04-30T15:16:52.866Z,21.90
2018-04-30T15:19:20.427Z,21.90
2018-04-30T15:21:47.937Z,22.00
2018-04-30T15:24:15.458Z,22.00
2018-04-30T15:26:43.023Z,22.10
2018-04-30T15:29:11.330Z,22.70
2018-04-30T15:31:38.858Z,22.70
2018-04-30T15:34:06.387Z,23.10
2018-04-30T15:36:33.984Z,23.20
2018-04-30T15:39:01.564Z,22.80
2018-04-30T15:41:29.329Z,21.90
2018-04-30T15:43:56.839Z,21.40
2018-04-30T15:46:24.415Z,21.40
2018-04-30T15:48:51.980Z,21.60
2018-04-30T15:51:20.265Z,22.10
2018-04-30T15:53:48.557Z,22.10
2018-04-30T15:56:16.834Z,22.10
2018-04-30T15:58:45.112Z,22.10
2018-04-30T16:01:12.618Z,22.00
2018-04-30T16:03:40.163Z,22.00
2018-04-30T16:06:07.744Z,22.20
2018-04-30T16:08:35.317Z,22.10
2018-04-30T16:11:02.844Z,22.00
2018-04-30T16:13:30.351Z,22.00
2018-04-30T16:15:57.859Z,22.00
2018-04-30T16:18:26.183Z,22.10
2018-04-30T16:20:53.762Z,22.30
2018-04-30T16:23:21.265Z,22.10
2018-04-30T16:25:48.795Z,21.90
2018-04-30T16:28:16.302Z,21.60
2018-04-30T16:30:43.856Z,21.60
2018-04-30T16:33:11.382Z,21.50
2018-04-30T16:35:38.881Z,21.50
2018-04-30T16:38:06.431Z,21.50
2018-04-30T16:40:33.962Z,21.50
2018-04-30T16:43:01.487Z,21.40
2018-04-30T16:45:29.014Z,21.30
2018-04-30T16:47:57.330Z,21.60
2018-04-30T16:50:25.631Z,21.60
2018-04-30T16:52:53.172Z,21.60
2018-04-30T16:55:21.458Z,21.60
2018-04-30T16:57:48.988Z,21.60
2018-04-30T17:00:17.300Z,21.80
2018-04-30T17:02:44.841Z,21.80
2018-04-30T17:05:12.407Z,21.70
2018-04-30T17:07:40.686Z,21.10
2018-04-30T17:10:08.204Z,21.10
2018-04-30T17:12:35.737Z,21.00
2018-04-30T17:15:03.232Z,21.00
2018-04-30T17:17:30.775Z,20.90
2018-04-30T17:19:58.343Z,20.70
2018-04-30T17:22:25.852Z,20.60
2018-04-30T17:24:53.379Z,20.40
2018-04-30T17:27:20.893Z,20.30
2018-04-30T17:29:48.395Z,20.20
2018-04-30T17:32:16.680Z,20.10
2018-04-30T17:34:44.189Z,20.00
2018-04-30T17:37:11.807Z,20.00
2018-04-30T17:39:40.128Z,19.90
2018-04-30T17:42:07.630Z,19.90
2018-04-30T17:44:35.178Z,19.90
2018-04-30T17:47:02.710Z,19.90
2018-04-30T17:49:30.289Z,19.80
2018-04-30T17:51:57.824Z,19.70
2018-04-30T17:54:25.350Z,19.70
2018-04-30T17:56:52.871Z,19.70
2018-04-30T17:59:20.383Z,19.60
2018-04-30T18:01:47.892Z,19.50
2018-04-30T18:04:15.414Z,19.50
2018-04-30T18:06:43.000Z,19.40
2018-04-30T18:09:10.505Z,19.30
2018-04-30T18:11:38.063Z,19.30
2018-04-30T18:14:05.569Z,19.20
2018-04-30T18:16:33.077Z,19.20
2018-04-30T18:19:00.605Z,19.10
2018-04-30T18:21:28.118Z,19.10
2018-04-30T18:23:55.705Z,19.10
2018-04-30T18:26:23.215Z,19.20
2018-04-30T18:28:51.506Z,19.20
2018-04-30T18:31:19.779Z,19.10
2018-04-30T18:33:48.092Z,19.10
2018-04-30T18:36:15.652Z,19.00
2018-04-30T18:38:43.193Z,19.10
2018-04-30T18:41:11.444Z,19.00
2018-04-30T18:43:39.742Z,19.00
2018-04-30T18:46:07.256Z,19.00
2018-04-30T18:48:34.799Z,19.00
2018-04-30T18:51:02.427Z,19.00
2018-04-30T18:53:30.753Z,18.90
2018-04-30T18:55:58.281Z,18.90
2018-04-30T18:58:26.995Z,18.80
2018-04-30T19:00:54.497Z,18.70
2018-04-30T19:03:22.045Z,18.70
2018-04-30T19:05:50.368Z,18.70
2018-04-30T19:08:17.878Z,18.60
2018-04-30T19:10:46.156Z,18.70
2018-04-30T19:13:13.703Z,18.70
2018-04-30T19:15:41.254Z,18.60
2018-04-30T19:18:08.833Z,18.50
2018-04-30T19:20:37.132Z,18.50
2018-04-30T19:23:05.407Z,18.50
2018-04-30T19:25:32.942Z,18.50
2018-04-30T19:28:00.477Z,18.50
2018-04-30T19:30:27.990Z,18.50
2018-04-30T19:32:56.325Z,18.40
2018-04-30T19:35:23.855Z,18.40
2018-04-30T19:37:51.365Z,18.40
2018-04-30T19:40:18.917Z,18.30
2018-04-30T19:42:46.636Z,18.10
2018-04-30T19:45:14.247Z,18.00
2018-04-30T19:47:41.769Z,18.00
2018-04-30T19:50:09.304Z,18.10
2018-04-30T19:52:36.828Z,17.90
2018-04-30T19:55:04.354Z,17.80
2018-04-30T19:57:31.877Z,17.80
2018-04-30T19:59:59.396Z,17.70
2018-04-30T20:02:26.926Z,17.70
2018-04-30T20:04:54.429Z,17.80
2018-04-30T20:07:21.970Z,17.70
2018-04-30T20:09:49.509Z,17.80
2018-04-30T20:12:17.115Z,17.80
2018-04-30T20:14:44.636Z,17.80
2018-04-30T20:17:12.177Z,17.80
2018-04-30T20:19:39.703Z,17.80
2018-04-30T20:22:08.012Z,17.70
2018-04-30T20:24:36.149Z,17.70
2018-04-30T20:27:04.451Z,17.40
2018-04-30T20:29:32.025Z,17.40
2018-04-30T20:31:59.574Z,17.40
2018-04-30T20:34:27.114Z,17.50
2018-04-30T20:36:54.635Z,17.40
2018-04-30T20:39:22.151Z,17.40
2018-04-30T20:41:49.678Z,17.40
2018-04-30T20:44:17.273Z,17.40
2018-04-30T20:46:44.774Z,17.50
2018-04-30T20:49:12.357Z,17.40
2018-04-30T20:51:39.913Z,17.40
2018-04-30T20:54:07.436Z,17.40
2018-04-30T20:56:35.043Z,17.40
2018-04-30T20:59:03.368Z,17.30
2018-04-30T21:01:30.893Z,17.30
2018-04-30T21:03:59.157Z,17.20
2018-04-30T21:06:27.461Z,17.10
2018-04-30T21:09:07.670Z,16.90
2018-04-30T21:11:35.206Z,16.90
2018-04-30T21:14:02.822Z,16.70
2018-04-30T21:16:30.357Z,16.70
2018-04-30T21:18:57.948Z,16.70
2018-04-30T21:21:25.475Z,16.70
2018-04-30T21:23:52.987Z,16.60
2018-04-30T21:26:20.516Z,16.60
2018-04-30T21:28:48.031Z,16.70
2018-04-30T21:31:15.621Z,16.70
2018-04-30T21:33:43.146Z,16.70
2018-04-30T21:36:10.655Z,16.70
2018-04-30T21:38:38.955Z,16.90
2018-04-30T21:41:06.469Z,16.90
2018-04-30T21:43:34.773Z,16.90
2018-04-30T21:46:02.300Z,17.00
2018-04-30T21:48:29.829Z,17.10
2018-04-30T21:50:57.357Z,17.00
2018-04-30T21:53:24.910Z,16.90
2018-04-30T21:55:53.247Z,16.70
2018-04-30T21:58:20.786Z,16.70
2018-04-30T22:00:48.316Z,16.60
2018-04-30T22:03:16.598Z,16.40
2018-04-30T22:05:44.871Z,16.30
2018-04-30T22:08:13.274Z,16.30
2018-04-30T22:10:40.793Z,16.30
2018-04-30T22:13:09.077Z,16.10
2018-04-30T22:15:37.367Z,16.00
2018-04-30T22:18:05.659Z,16.00
2018-04-30T22:20:33.188Z,16.00
2018-04-30T22:23:00.703Z,16.00
2018-04-30T22:25:28.209Z,16.00
2018-04-30T22:27:56.484Z,16.10
2018-04-30T22:30:24.761Z,16.10
2018-04-30T22:32:53.091Z,16.00
2018-04-30T22:35:20.596Z,16.00
2018-04-30T22:37:48.164Z,16.10
2018-04-30T22:40:15.767Z,16.10
2018-04-30T22:42:43.428Z,16.10
2018-04-30T22:45:10.960Z,16.10
2018-04-30T22:47:38.470Z,16.10
2018-04-30T22:50:06.014Z,16.10
2018-04-30T22:52:33.548Z,16.00
2018-04-30T22:55:01.073Z,16.00
2018-04-30T22:57:28.605Z,16.00
2018-04-30T22:59:56.112Z,15.90
2018-04-30T23:02:24.389Z,16.00
2018-04-30T23:04:52.736Z,16.00
2018-04-30T23:07:20.365Z,16.00
2018-04-30T23:09:48.591Z,16.00
2018-04-30T23:12:16.861Z,15.90
2018-04-30T23:14:44.391Z,15.90
2018-04-30T23:17:11.901Z,15.70
2018-04-30T23:19:39.454Z,15.60
2018-04-30T23:22:07.729Z,15.70
2018-04-30T23:24:36.062Z,15.70
2018-04-30T23:27:03.563Z,15.70
2018-04-30T23:29:31.833Z,15.50
2018-04-30T23:31:59.326Z,15.50
2018-04-30T23:34:26.831Z,15.60
2018-04-30T23:36:54.357Z,15.60
2018-04-30T23:39:21.974Z,15.50
2018-04-30T23:41:50.265Z,15.20
2018-04-30T23:44:18.740Z,15.20
2018-04-30T23:46:47.027Z,15.20
2018-04-30T23:49:15.313Z,15.10
2018-04-30T23:51:42.851Z,15.10
2018-04-30T23:54:10.374Z,15.00
2018-04-30T23:56:37.888Z,15.00
2018-04-30T23:59:05.394Z,15.10
